Time;durP1;ratioP1;P1;durP2;ratioP2;P2;SDS_P1;SDS_P2;PMS_P1;PMS_P2;Temp;Humidity;BMP_temperature;BMP_pressure;BME280_temperature;BME280_humidity;BME280_pressure;Samples;Min_cycle;Max_cycle;Signal;HPM_P1;HPM_P2
2022/08/02 00:01:00;;;;;;;1.20;1.10;;;21.50;99.90;;;;;;5201410;28;20024;-62
2022/08/02 00:03:34;;;;;;;1.00;0.90;;;21.50;99.90;;;;;;5197813;28;20195;-61
2022/08/02 00:06:05;;;;;;;2.05;1.25;;;21.40;99.90;;;;;;5184356;28;20049;-62
2022/08/02 00:08:39;;;;;;;1.95;0.90;;;21.40;99.90;;;;;;5197469;28;20029;-61
2022/08/02 00:11:11;;;;;;;0.77;0.77;;;21.30;99.90;;;;;;5214875;28;20321;-60
2022/08/02 00:13:42;;;;;;;1.40;1.15;;;21.30;99.90;;;;;;5181849;28;20399;-61
2022/08/02 00:16:14;;;;;;;1.25;1.15;;;21.30;99.90;;;;;;5198444;28;20052;-62
2022/08/02 00:18:45;;;;;;;1.25;1.00;;;21.30;99.90;;;;;;5198519;28;20237;-61
2022/08/02 00:21:22;;;;;;;1.42;0.98;;;21.30;99.90;;;;;;5214720;28;20023;-61
2022/08/02 00:23:55;;;;;;;0.80;0.70;;;21.30;99.90;;;;;;5214304;28;20025;-61
2022/08/02 00:26:27;;;;;;;0.70;0.70;;;21.30;99.90;;;;;;5222478;28;20020;-60
2022/08/02 00:29:01;;;;;;;1.52;1.42;;;21.40;99.90;;;;;;5214049;28;20035;-61
2022/08/02 00:31:35;;;;;;;0.70;0.70;;;21.40;99.90;;;;;;5201765;28;20024;-62
2022/08/02 00:34:06;;;;;;;0.90;0.90;;;21.50;99.90;;;;;;5234579;28;20298;-61
2022/08/02 00:36:40;;;;;;;0.88;0.80;;;21.50;99.90;;;;;;5197429;28;20021;-62
2022/08/02 00:39:13;;;;;;;0.82;0.77;;;21.50;99.90;;;;;;5217852;28;20031;-61
2022/08/02 00:41:47;;;;;;;1.10;1.00;;;21.50;99.90;;;;;;5219356;28;20037;-62
2022/08/02 00:44:26;;;;;;;1.00;0.90;;;21.40;99.90;;;;;;5213485;28;20021;-60
2022/08/02 00:46:58;;;;;;;1.77;0.80;;;21.30;99.90;;;;;;5165431;28;20029;-60
2022/08/02 00:49:30;;;;;;;0.77;0.77;;;21.20;99.90;;;;;;5206483;28;20294;-59
2022/08/02 00:52:02;;;;;;;0.80;0.80;;;21.20;99.90;;;;;;5217647;28;20318;-60
2022/08/02 00:54:35;;;;;;;0.98;0.70;;;21.20;99.90;;;;;;5234397;28;20040;-61
2022/08/02 00:57:06;;;;;;;1.00;1.00;;;21.10;99.90;;;;;;5235903;28;20225;-61
2022/08/02 00:59:37;;;;;;;0.70;0.70;;;21.10;99.90;;;;;;5217506;28;20043;-60
2022/08/02 01:02:12;;;;;;;1.10;1.00;;;21.20;99.90;;;;;;5229551;28;20200;-61
2022/08/02 01:04:43;;;;;;;0.68;0.68;;;21.10;99.90;;;;;;5205039;28;20674;-60
2022/08/02 01:07:17;;;;;;;0.75;0.75;;;21.10;99.90;;;;;;5213628;28;20302;-60
2022/08/02 01:09:49;;;;;;;0.60;0.60;;;21.00;99.90;;;;;;5179874;28;20033;-61
2022/08/02 01:12:22;;;;;;;1.60;0.70;;;21.00;99.90;;;;;;5220784;28;20043;-61
2022/08/02 01:15:00;;;;;;;0.70;0.70;;;20.90;99.90;;;;;;5219398;28;20507;-61
2022/08/02 01:17:47;;;;;;;0.90;0.90;;;20.90;99.90;;;;;;5193713;28;20021;-61
2022/08/02 01:20:22;;;;;;;1.58;0.95;;;20.90;99.90;;;;;;5198030;28;20037;-61
2022/08/02 01:23:15;;;;;;;1.30;0.80;;;20.90;99.90;;;;;;5213349;28;20027;-61
2022/08/02 01:25:58;;;;;;;1.77;1.05;;;21.00;99.90;;;;;;5217001;28;20027;-60
2022/08/02 01:28:37;;;;;;;1.10;0.75;;;20.90;99.90;;;;;;5207911;28;20310;-61
2022/08/02 01:31:46;;;;;;;0.70;0.70;;;20.90;99.90;;;;;;5215541;28;20313;-61
2022/08/02 01:34:29;;;;;;;0.70;0.70;;;20.90;99.90;;;;;;5231591;28;20036;-61
2022/08/02 01:37:10;;;;;;;0.77;0.77;;;20.90;99.90;;;;;;5177669;28;20035;-61
2022/08/02 01:39:43;;;;;;;2.25;0.93;;;20.90;99.90;;;;;;5222509;28;20016;-60
2022/08/02 01:42:18;;;;;;;1.05;1.05;;;20.80;99.90;;;;;;5184216;28;20312;-62
2022/08/02 01:44:53;;;;;;;1.02;0.77;;;20.80;99.90;;;;;;5201248;28;20033;-61
2022/08/02 01:47:32;;;;;;;0.80;0.80;;;20.90;99.90;;;;;;5218952;28;20039;-61
2022/08/02 01:50:08;;;;;;;1.15;0.80;;;20.90;99.90;;;;;;5221588;28;20031;-62
2022/08/02 01:52:46;;;;;;;0.90;0.80;;;20.90;99.90;;;;;;5189622;28;20045;-62
2022/08/02 01:55:31;;;;;;;1.02;1.00;;;21.00;99.90;;;;;;5180806;28;20018;-61
2022/08/02 01:58:05;;;;;;;0.98;0.90;;;21.00;99.90;;;;;;5198385;28;20124;-61
2022/08/02 02:00:41;;;;;;;;;;;21.00;99.90;;;;;;5180923;28;20029;-61
2022/08/02 02:03:26;;;;;;;0.90;0.75;;;21.10;99.90;;;;;;5209658;28;20069;-61
2022/08/02 02:06:02;;;;;;;0.77;0.77;;;21.00;99.90;;;;;;5189908;28;20041;-61
2022/08/02 02:08:43;;;;;;;1.08;0.98;;;20.90;99.90;;;;;;5200560;28;20013;-61
2022/08/02 02:11:14;;;;;;;0.80;0.80;;;20.80;99.90;;;;;;5199959;28;20033;-61
2022/08/02 02:13:48;;;;;;;0.70;0.70;;;20.80;99.90;;;;;;5230414;28;20305;-62
2022/08/02 02:16:21;;;;;;;0.82;0.75;;;20.80;99.90;;;;;;5238708;28;20019;-61
2022/08/02 02:18:53;;;;;;;0.77;0.77;;;20.80;99.90;;;;;;5235652;28;20320;-61
2022/08/02 02:21:25;;;;;;;0.73;0.73;;;20.80;99.90;;;;;;5236647;28;20028;-61
2022/08/02 02:23:57;;;;;;;0.73;0.73;;;20.80;99.90;;;;;;5222615;28;20021;-62
2022/08/02 02:26:32;;;;;;;1.65;1.00;;;20.80;99.90;;;;;;5204120;28;20391;-61
2022/08/02 02:29:07;;;;;;;1.25;0.93;;;20.80;99.90;;;;;;5235611;28;20056;-61
2022/08/02 02:31:45;;;;;;;0.70;0.70;;;20.80;99.90;;;;;;5238460;28;20016;-60
2022/08/02 02:34:28;;;;;;;0.80;0.80;;;20.70;99.90;;;;;;5238576;28;20034;-61
2022/08/02 02:37:05;;;;;;;0.80;0.75;;;20.60;99.90;;;;;;5225807;28;20029;-61
2022/08/02 02:39:41;;;;;;;1.10;0.98;;;20.60;99.90;;;;;;5199767;28;20046;-60
2022/08/02 02:42:14;;;;;;;2.03;0.90;;;20.70;99.90;;;;;;5182601;28;20322;-61
2022/08/02 02:44:50;;;;;;;0.80;0.80;;;20.70;99.90;;;;;;5217134;28;20315;-60
2022/08/02 02:47:24;;;;;;;0.80;0.80;;;20.70;99.90;;;;;;5217863;28;20027;-61
2022/08/02 02:50:02;;;;;;;0.70;0.70;;;20.80;99.90;;;;;;5235753;28;20027;-60
2022/08/02 02:52:35;;;;;;;0.55;0.55;;;20.80;99.90;;;;;;5211069;28;20029;-60
2022/08/02 02:55:08;;;;;;;0.77;0.77;;;20.80;99.90;;;;;;5200551;28;20031;-60
2022/08/02 02:57:40;;;;;;;0.82;0.70;;;20.70;99.90;;;;;;5211970;28;20337;-62
2022/08/02 03:00:16;;;;;;;0.90;0.90;;;20.70;99.90;;;;;;5216673;28;20032;-62
2022/08/02 03:02:49;;;;;;;3.05;0.90;;;20.60;99.90;;;;;;5198373;28;20054;-60
2022/08/02 03:05:21;;;;;;;4.88;1.00;;;20.60;99.90;;;;;;5204137;28;20328;-60
2022/08/02 03:07:53;;;;;;;0.60;0.60;;;20.60;99.90;;;;;;5213618;28;20024;-60
2022/08/02 03:10:30;;;;;;;0.90;0.90;;;20.50;99.90;;;;;;5181203;28;20256;-60
2022/08/02 03:13:01;;;;;;;0.70;0.70;;;20.50;99.90;;;;;;5223227;28;20228;-61
2022/08/02 03:15:34;;;;;;;1.42;0.90;;;20.40;99.90;;;;;;5218849;28;20214;-61
2022/08/02 03:18:09;;;;;;;1.38;0.80;;;20.60;99.90;;;;;;5237148;28;20321;-61
2022/08/02 03:20:40;;;;;;;0.80;0.80;;;20.50;99.90;;;;;;5219160;28;20032;-61
2022/08/02 03:23:11;;;;;;;0.85;0.85;;;20.40;99.90;;;;;;5228588;28;20546;-60
2022/08/02 03:25:44;;;;;;;0.80;0.80;;;20.40;99.90;;;;;;5198946;28;20222;-62
2022/08/02 03:28:16;;;;;;;1.05;1.05;;;20.30;99.90;;;;;;5232107;28;20046;-60
2022/08/02 03:30:49;;;;;;;0.80;0.80;;;20.30;99.90;;;;;;5237182;28;20022;-60
2022/08/02 03:33:24;;;;;;;1.25;1.15;;;20.20;99.90;;;;;;5226532;28;20021;-61
2022/08/02 03:36:04;;;;;;;1.42;1.33;;;20.20;99.90;;;;;;5215824;28;20027;-60
2022/08/02 03:38:36;;;;;;;1.13;1.02;;;20.20;99.90;;;;;;5216857;28;20023;-61
2022/08/02 03:41:10;;;;;;;3.05;1.00;;;20.20;99.90;;;;;;5183955;28;20031;-61
2022/08/02 03:43:46;;;;;;;1.13;1.03;;;20.20;99.90;;;;;;5202497;28;20321;-61
2022/08/02 03:46:22;;;;;;;1.27;1.05;;;20.20;99.90;;;;;;5198986;28;20458;-62
2022/08/02 03:48:57;;;;;;;0.77;0.77;;;20.20;99.90;;;;;;5217241;28;20029;-61
2022/08/02 03:51:29;;;;;;;0.93;0.93;;;20.20;99.90;;;;;;5216882;28;20211;-61
2022/08/02 03:54:01;;;;;;;0.70;0.70;;;20.30;99.90;;;;;;5200313;28;20036;-61
2022/08/02 03:56:35;;;;;;;1.10;1.05;;;20.30;99.90;;;;;;5197950;28;20031;-61
2022/08/02 03:59:13;;;;;;;1.20;1.10;;;20.40;99.90;;;;;;5216265;28;20036;-61
2022/08/02 04:01:45;;;;;;;1.10;1.00;;;20.30;99.90;;;;;;5213906;28;20031;-61
2022/08/02 04:04:16;;;;;;;1.10;1.00;;;20.50;99.90;;;;;;5204618;28;20042;-60
2022/08/02 04:06:50;;;;;;;0.68;0.68;;;20.60;99.90;;;;;;5215425;28;20024;-60
2022/08/02 04:09:25;;;;;;;0.68;0.68;;;20.60;99.90;;;;;;5215115;28;20039;-61
2022/08/02 04:11:56;;;;;;;1.25;0.90;;;20.70;99.90;;;;;;5197802;28;20207;-61
2022/08/02 04:14:27;;;;;;;1.35;0.82;;;20.80;99.90;;;;;;5233846;28;20031;-60
2022/08/02 04:17:07;;;;;;;1.00;0.90;;;21.00;99.90;;;;;;5236749;28;20222;-62
2022/08/02 04:19:52;;;;;;;0.85;0.82;;;21.10;99.90;;;;;;5236901;28;20063;-62
2022/08/02 04:22:40;;;;;;;0.98;0.98;;;21.20;99.90;;;;;;5218384;28;20029;-61
2022/08/02 04:25:15;;;;;;;1.00;0.90;;;21.30;99.90;;;;;;5195656;28;20039;-61
2022/08/02 04:27:49;;;;;;;;;;;21.50;99.90;;;;;;5198543;28;20028;-61
2022/08/02 04:30:26;;;;;;;0.90;0.80;;;21.50;99.90;;;;;;5217559;28;20063;-60
2022/08/02 04:33:00;;;;;;;2.58;0.90;;;21.60;99.90;;;;;;5209681;28;20036;-62
2022/08/02 04:35:34;;;;;;;1.27;0.98;;;21.60;99.90;;;;;;5216484;28;20028;-61
2022/08/02 04:38:08;;;;;;;1.60;0.80;;;21.50;99.90;;;;;;5207574;28;20087;-61
2022/08/02 04:40:40;;;;;;;0.80;0.80;;;21.40;99.90;;;;;;5236301;28;20026;-62
2022/08/02 04:43:15;;;;;;;1.00;0.90;;;21.40;99.90;;;;;;5213556;28;20033;-61
2022/08/02 04:45:52;;;;;;;1.75;0.90;;;21.40;99.90;;;;;;5197337;28;20028;-62
2022/08/02 04:48:29;;;;;;;3.53;0.90;;;21.30;99.90;;;;;;5215327;28;20016;-62
2022/08/02 04:51:02;;;;;;;1.13;1.02;;;21.40;99.90;;;;;;5199820;28;20025;-62
2022/08/02 04:53:34;;;;;;;0.80;0.80;;;21.40;99.90;;;;;;5181630;28;20033;-62
2022/08/02 04:56:07;;;;;;;1.45;1.20;;;21.50;99.90;;;;;;5217723;28;20020;-61
2022/08/02 04:58:41;;;;;;;0.90;0.88;;;21.40;99.90;;;;;;5198829;28;20025;-61
2022/08/02 05:01:12;;;;;;;1.30;1.20;;;21.50;99.90;;;;;;5216240;28;20025;-62
2022/08/02 05:03:49;;;;;;;1.17;1.08;;;21.50;99.90;;;;;;5199174;28;20029;-62
2022/08/02 05:06:23;;;;;;;1.00;0.90;;;21.60;99.90;;;;;;5204411;28;20147;-61
2022/08/02 05:08:58;;;;;;;1.13;1.13;;;21.70;99.90;;;;;;5198805;28;20032;-60
2022/08/02 05:11:29;;;;;;;1.00;1.00;;;21.70;99.90;;;;;;5216192;28;20192;-60
2022/08/02 05:14:01;;;;;;;1.13;1.10;;;21.60;99.90;;;;;;5215464;28;20033;-60
2022/08/02 05:16:35;;;;;;;1.20;1.10;;;21.40;99.90;;;;;;5222316;28;20029;-59
2022/08/02 05:19:06;;;;;;;1.10;1.02;;;21.50;99.90;;;;;;5206315;28;20241;-61
2022/08/02 05:21:38;;;;;;;1.58;1.38;;;21.70;99.90;;;;;;5241318;28;20032;-60
2022/08/02 05:24:09;;;;;;;1.20;1.10;;;21.70;99.90;;;;;;5234374;28;20035;-60
2022/08/02 05:26:42;;;;;;;2.20;1.23;;;21.80;99.90;;;;;;5220314;28;20332;-62
2022/08/02 05:29:14;;;;;;;1.27;1.13;;;21.90;99.90;;;;;;5217967;28;20315;-60
2022/08/02 05:31:45;;;;;;;1.10;1.00;;;21.90;99.90;;;;;;5201860;28;20535;-61
2022/08/02 05:34:17;;;;;;;1.00;1.00;;;21.80;99.90;;;;;;5185202;28;20052;-61
2022/08/02 05:36:48;;;;;;;2.58;1.38;;;21.80;99.90;;;;;;5221973;28;20021;-60
2022/08/02 05:39:22;;;;;;;1.60;1.00;;;21.80;99.90;;;;;;5184586;28;20037;-61
2022/08/02 05:41:53;;;;;;;0.82;0.80;;;22.10;99.90;;;;;;5202340;28;20048;-60
2022/08/02 05:44:29;;;;;;;1.42;1.30;;;22.20;99.90;;;;;;5218257;28;20029;-60
2022/08/02 05:47:00;;;;;;;1.02;1.02;;;22.20;99.90;;;;;;5233937;28;20030;-61
2022/08/02 05:49:34;;;;;;;1.17;1.05;;;22.20;99.90;;;;;;5240254;28;20024;-62
2022/08/02 05:52:15;;;;;;;1.35;1.08;;;22.20;99.90;;;;;;5240812;28;20328;-60
2022/08/02 05:54:52;;;;;;;1.00;0.98;;;22.10;99.90;;;;;;5235849;28;20038;-60
2022/08/02 05:57:54;;;;;;;0.82;0.77;;;22.10;99.90;;;;;;5237533;28;20205;-60
2022/08/02 06:00:34;;;;;;;1.40;1.00;;;22.10;99.90;;;;;;5184300;28;20360;-61
2022/08/02 06:03:17;;;;;;;1.50;1.40;;;22.00;99.90;;;;;;5200063;28;20032;-61
2022/08/02 06:06:12;;;;;;;3.25;1.27;;;22.00;99.90;;;;;;5206917;28;20071;-61
2022/08/02 06:08:47;;;;;;;;;;;21.90;99.90;;;;;;5216847;28;20039;-60
2022/08/02 06:11:23;;;;;;;0.80;0.80;;;21.90;99.90;;;;;;5218824;28;19901;-59
2022/08/02 06:13:55;;;;;;;1.45;1.23;;;22.20;99.90;;;;;;5200525;28;20056;-62
2022/08/02 06:16:29;;;;;;;1.15;1.05;;;22.30;99.90;;;;;;5218702;28;20035;-61
2022/08/02 06:19:01;;;;;;;1.48;1.38;;;22.40;99.90;;;;;;5216735;28;20041;-62
2022/08/02 06:21:35;;;;;;;3.38;1.02;;;22.40;99.90;;;;;;5229554;28;20410;-61
2022/08/02 06:24:08;;;;;;;;;;;22.50;99.90;;;;;;5198538;28;20039;-61
2022/08/02 06:26:42;;;;;;;1.90;1.63;;;22.70;99.90;;;;;;5200002;28;20232;-62
2022/08/02 06:29:14;;;;;;;1.13;1.02;;;22.70;99.90;;;;;;5201964;28;20193;-61
2022/08/02 06:31:46;;;;;;;1.00;0.90;;;22.70;99.90;;;;;;5215505;28;20245;-61
2022/08/02 06:34:17;;;;;;;1.25;1.15;;;22.60;99.90;;;;;;5229676;28;20033;-62
2022/08/02 06:37:05;;;;;;;1.20;1.10;;;22.40;99.90;;;;;;5210488;28;20037;-60
2022/08/02 06:39:46;;;;;;;1.50;1.40;;;22.30;99.90;;;;;;5214994;28;20013;-60
2022/08/02 06:42:25;;;;;;;1.27;1.17;;;22.20;99.90;;;;;;5197941;28;20235;-60
2022/08/02 06:44:58;;;;;;;1.75;1.10;;;22.00;99.90;;;;;;5219083;28;20342;-60
2022/08/02 06:47:32;;;;;;;1.40;1.15;;;22.10;99.90;;;;;;5199050;28;20021;-60
2022/08/02 06:50:04;;;;;;;1.00;1.00;;;22.20;99.90;;;;;;5216579;28;20029;-60
2022/08/02 06:52:35;;;;;;;1.20;1.10;;;22.10;99.90;;;;;;5198831;28;20233;-61
2022/08/02 06:55:13;;;;;;;1.25;1.10;;;22.00;99.90;;;;;;5198281;28;20154;-60
2022/08/02 06:57:44;;;;;;;2.00;1.30;;;21.90;99.90;;;;;;5197272;28;20244;-60
2022/08/02 07:00:15;;;;;;;1.50;1.40;;;22.00;99.90;;;;;;5214075;28;20043;-60
2022/08/02 07:02:48;;;;;;;2.03;1.10;;;21.90;99.90;;;;;;5220779;28;20303;-59
2022/08/02 07:05:21;;;;;;;1.40;1.30;;;21.90;99.90;;;;;;5195618;28;20262;-62
2022/08/02 07:07:55;;;;;;;1.50;1.40;;;22.10;99.90;;;;;;5196379;28;20265;-59
2022/08/02 07:10:29;;;;;;;0.93;0.93;;;22.00;99.90;;;;;;5198317;28;20338;-60
2022/08/02 07:13:00;;;;;;;1.63;1.00;;;21.90;99.90;;;;;;5224102;28;20029;-60
2022/08/02 07:15:35;;;;;;;1.15;1.00;;;21.90;99.90;;;;;;5212254;28;20233;-60
2022/08/02 07:18:13;;;;;;;1.70;1.10;;;21.80;99.90;;;;;;5197965;28;20310;-61
2022/08/02 07:20:45;;;;;;;1.48;1.15;;;21.80;99.90;;;;;;5198688;28;20029;-61
2022/08/02 07:23:19;;;;;;;2.33;1.27;;;21.90;99.90;;;;;;5199362;28;20120;-60
2022/08/02 07:25:53;;;;;;;3.13;1.00;;;21.90;99.90;;;;;;5197453;28;20429;-61
2022/08/02 07:28:27;;;;;;;0.90;0.90;;;21.90;99.90;;;;;;5198982;28;20247;-60
2022/08/02 07:30:58;;;;;;;2.50;0.88;;;21.90;99.90;;;;;;5198734;28;20206;-61
2022/08/02 07:33:29;;;;;;;3.53;0.90;;;21.90;99.90;;;;;;5216672;28;20036;-63
2022/08/02 07:36:05;;;;;;;1.08;1.00;;;21.90;99.90;;;;;;5228645;28;20020;-62
2022/08/02 07:38:37;;;;;;;2.03;1.50;;;21.80;99.90;;;;;;5219363;28;20043;-60
2022/08/02 07:41:08;;;;;;;1.25;1.15;;;21.90;99.90;;;;;;5218408;28;20030;-60
2022/08/02 07:43:42;;;;;;;1.42;1.20;;;21.80;99.90;;;;;;5222292;28;20302;-60
2022/08/02 07:46:16;;;;;;;1.10;1.00;;;21.90;99.90;;;;;;5198994;28;20043;-61
2022/08/02 07:48:52;;;;;;;1.20;1.10;;;21.90;99.90;;;;;;5198452;28;20374;-61
2022/08/02 07:51:25;;;;;;;4.72;1.20;;;22.10;99.90;;;;;;5199620;28;20218;-63
2022/08/02 07:54:02;;;;;;;1.20;1.10;;;22.10;99.90;;;;;;5216164;28;20208;-60
2022/08/02 07:56:33;;;;;;;2.17;1.08;;;22.30;99.90;;;;;;5197795;28;20039;-60
2022/08/02 07:59:13;;;;;;;1.02;1.00;;;22.40;99.90;;;;;;5199153;28;20032;-60
2022/08/02 08:01:45;;;;;;;1.10;1.00;;;22.60;99.90;;;;;;5198287;28;20299;-61
2022/08/02 08:04:21;;;;;;;3.53;1.10;;;22.50;99.90;;;;;;5205690;28;20027;-61
2022/08/02 08:07:04;;;;;;;1.60;1.33;;;22.60;99.90;;;;;;5214370;28;20035;-62
2022/08/02 08:09:41;;;;;;;1.30;1.10;;;22.50;99.90;;;;;;5198041;28;20495;-60
2022/08/02 08:12:18;;;;;;;1.20;1.10;;;22.60;99.90;;;;;;5216989;28;20205;-60
2022/08/02 08:14:49;;;;;;;1.20;1.10;;;22.60;99.90;;;;;;5196094;28;20035;-61
2022/08/02 08:17:25;;;;;;;1.38;1.00;;;22.80;99.90;;;;;;5194189;28;20025;-61
2022/08/02 08:19:59;;;;;;;1.17;1.02;;;22.90;99.90;;;;;;5215268;28;20033;-61
2022/08/02 08:22:30;;;;;;;1.33;1.08;;;23.00;99.90;;;;;;5215954;28;20194;-60
2022/08/02 08:25:04;;;;;;;3.53;1.30;;;23.00;99.90;;;;;;5199041;28;20063;-60
2022/08/02 08:27:35;;;;;;;1.35;1.25;;;23.10;99.90;;;;;;5206918;28;20031;-63
2022/08/02 08:30:09;;;;;;;1.42;1.20;;;23.20;99.90;;;;;;5216798;28;20031;-62
2022/08/02 08:32:41;;;;;;;1.17;1.08;;;23.10;99.90;;;;;;5205105;28;20039;-60
2022/08/02 08:35:14;;;;;;;1.23;0.98;;;23.30;99.90;;;;;;5236734;28;20305;-59
2022/08/02 08:37:45;;;;;;;1.30;1.20;;;23.20;99.90;;;;;;5221908;28;20031;-61
2022/08/02 08:40:19;;;;;;;1.27;1.10;;;23.40;99.90;;;;;;5218357;28;20020;-61
2022/08/02 08:42:53;;;;;;;4.68;1.67;;;23.60;99.90;;;;;;5216312;28;20317;-62
2022/08/02 08:45:24;;;;;;;1.57;0.97;;;23.40;99.90;;;;;;5203836;28;20222;-61
2022/08/02 08:48:02;;;;;;;1.40;1.20;;;23.40;99.90;;;;;;5202958;28;20419;-62
2022/08/02 08:50:35;;;;;;;1.30;1.20;;;23.50;99.90;;;;;;5179392;28;20295;-61
2022/08/02 08:53:11;;;;;;;1.38;1.27;;;23.40;99.90;;;;;;5215653;28;20025;-61
2022/08/02 08:55:47;;;;;;;2.97;1.60;;;23.50;99.90;;;;;;5214537;28;20025;-61
2022/08/02 08:58:18;;;;;;;1.08;1.00;;;23.40;99.90;;;;;;5215456;28;20017;-60
2022/08/02 09:00:49;;;;;;;1.40;1.10;;;23.70;99.90;;;;;;5224999;28;20039;-61
2022/08/02 09:03:20;;;;;;;1.30;1.20;;;23.70;99.90;;;;;;5214421;28;20175;-60
2022/08/02 09:05:56;;;;;;;1.27;0.98;;;23.60;99.90;;;;;;5185036;28;20049;-62
2022/08/02 09:08:28;;;;;;;1.48;1.20;;;23.70;99.90;;;;;;5227998;28;20020;-63
2022/08/02 09:11:15;;;;;;;1.38;1.27;;;23.80;99.90;;;;;;5235583;28;20202;-60
2022/08/02 09:13:53;;;;;;;1.65;0.98;;;24.10;99.90;;;;;;5212841;28;20389;-60
2022/08/02 09:16:34;;;;;;;1.27;1.10;;;24.40;99.90;;;;;;5218092;28;20041;-62
2022/08/02 09:19:25;;;;;;;1.13;1.02;;;25.10;99.90;;;;;;5209523;28;20025;-61
2022/08/02 09:22:06;;;;;;;1.20;1.00;;;25.20;99.90;;;;;;5222765;28;20021;-61
2022/08/02 09:24:51;;;;;;;0.95;0.95;;;25.40;99.90;;;;;;5217745;28;20029;-60
2022/08/02 09:27:25;;;;;;;4.00;1.05;;;25.30;99.90;;;;;;5202608;28;20396;-61
2022/08/02 09:30:01;;;;;;;2.38;1.10;;;25.00;99.90;;;;;;5235260;28;20085;-62
2022/08/02 09:32:44;;;;;;;1.23;1.00;;;25.20;99.90;;;;;;5235399;28;20463;-61
2022/08/02 09:35:36;;;;;;;1.65;1.25;;;25.90;99.90;;;;;;5225401;28;20119;-61
2022/08/02 09:38:11;;;;;;;1.05;0.98;;;26.20;99.90;;;;;;5214274;28;20021;-61
2022/08/02 09:40:43;;;;;;;1.13;0.95;;;26.00;99.90;;;;;;5215780;28;20021;-61
2022/08/02 09:43:19;;;;;;;1.23;0.93;;;25.70;99.90;;;;;;5214117;28;20508;-61
2022/08/02 09:45:57;;;;;;;1.05;0.95;;;25.70;99.90;;;;;;5210839;28;20233;-60
2022/08/02 09:48:30;;;;;;;1.25;1.10;;;25.80;99.90;;;;;;5203028;28;20020;-61
2022/08/02 09:51:01;;;;;;;0.90;0.90;;;25.70;99.90;;;;;;5213779;28;20341;-61
2022/08/02 09:53:33;;;;;;;2.40;0.90;;;25.80;99.90;;;;;;5206483;28;20244;-62
2022/08/02 09:56:05;;;;;;;0.80;0.80;;;26.50;99.90;;;;;;5234993;28;20021;-63
2022/08/02 09:58:41;;;;;;;0.93;0.93;;;27.60;99.90;;;;;;5237882;28;20234;-62
2022/08/02 10:01:13;;;;;;;1.30;1.00;;;27.60;99.90;;;;;;5220138;28;20024;-61
2022/08/02 10:04:10;;;;;;;0.80;0.80;;;27.20;99.90;;;;;;5229575;28;20241;-61
2022/08/02 10:06:45;;;;;;;1.05;1.00;;;27.40;99.90;;;;;;5193597;28;20052;-61
2022/08/02 10:09:23;;;;;;;0.70;0.70;;;27.90;99.90;;;;;;5196268;28;20306;-61
2022/08/02 10:11:58;;;;;;;2.92;0.90;;;29.10;99.90;;;;;;5196603;28;20199;-62
2022/08/02 10:14:31;;;;;;;0.90;0.80;;;28.70;99.90;;;;;;5219128;28;20041;-66
2022/08/02 10:17:06;;;;;;;1.38;0.90;;;28.20;99.90;;;;;;5221349;28;20317;-61
2022/08/02 10:19:37;;;;;;;0.85;0.82;;;27.80;99.90;;;;;;5219132;28;20310;-62
2022/08/02 10:22:16;;;;;;;1.08;0.90;;;28.00;99.90;;;;;;5234200;28;20266;-62
2022/08/02 10:24:49;;;;;;;0.80;0.80;;;28.20;99.90;;;;;;5220793;28;20032;-62
2022/08/02 10:27:23;;;;;;;0.75;0.75;;;28.80;99.90;;;;;;5232529;28;20455;-63
2022/08/02 10:29:59;;;;;;;0.70;0.70;;;29.60;99.90;;;;;;5202596;28;20019;-64
2022/08/02 10:32:38;;;;;;;0.80;0.80;;;29.80;99.90;;;;;;5207899;28;20245;-62
2022/08/02 10:35:17;;;;;;;0.82;0.82;;;30.50;99.90;;;;;;5224255;28;20013;-62
2022/08/02 10:37:59;;;;;;;0.65;0.65;;;29.10;99.90;;;;;;5217757;28;20039;-62
2022/08/02 10:40:45;;;;;;;0.70;0.70;;;29.40;99.90;;;;;;5223309;28;20299;-63
2022/08/02 10:43:49;;;;;;;1.35;0.88;;;30.50;99.90;;;;;;5221692;28;20076;-64
2022/08/02 10:46:33;;;;;;;1.00;1.00;;;32.10;99.90;;;;;;5203988;28;20025;-62
2022/08/02 10:49:24;;;;;;;0.80;0.80;;;33.30;99.90;;;;;;5202568;28;20045;-62
2022/08/02 10:52:01;;;;;;;1.02;0.93;;;32.20;99.90;;;;;;5221067;28;20020;-62
2022/08/02 10:54:36;;;;;;;0.80;0.80;;;32.60;99.90;;;;;;5228762;28;20238;-62
2022/08/02 10:57:19;;;;;;;0.77;0.70;;;32.10;99.90;;;;;;5210138;28;20029;-62
2022/08/02 11:00:02;;;;;;;0.70;0.70;;;31.20;99.90;;;;;;5221197;28;20035;-62
2022/08/02 11:02:39;;;;;;;0.95;0.60;;;30.30;99.90;;;;;;5224277;28;20021;-62
2022/08/02 11:05:34;;;;;;;0.93;0.77;;;30.70;99.90;;;;;;5202978;28;20218;-62
2022/08/02 11:08:21;;;;;;;0.68;0.68;;;32.20;99.90;;;;;;5214014;28;20025;-63
2022/08/02 11:10:59;;;;;;;0.80;0.80;;;34.10;99.90;;;;;;5239899;28;20025;-62
2022/08/02 11:13:30;;;;;;;0.80;0.80;;;34.10;99.90;;;;;;5232742;28;20035;-62
2022/08/02 11:16:05;;;;;;;0.73;0.73;;;35.40;99.90;;;;;;5219959;28;20365;-64
2022/08/02 11:18:48;;;;;;;0.80;0.80;;;36.30;99.90;;;;;;5226403;28;20024;-62
2022/08/02 11:21:24;;;;;;;0.82;0.82;;;35.20;99.90;;;;;;5227993;28;20257;-62
2022/08/02 11:24:16;;;;;;;0.82;0.82;;;35.10;99.90;;;;;;5209894;28;20273;-62
2022/08/02 11:26:50;;;;;;;0.98;0.70;;;32.10;99.90;;;;;;5201855;28;20222;-63
2022/08/02 11:29:34;;;;;;;1.00;0.88;;;30.60;99.90;;;;;;5227789;28;20020;-62
2022/08/02 11:32:20;;;;;;;0.70;0.70;;;30.20;99.90;;;;;;5221854;28;20019;-65
2022/08/02 11:34:53;;;;;;;0.77;0.70;;;30.90;99.90;;;;;;5223843;28;20034;-64
2022/08/02 11:37:41;;;;;;;0.87;0.87;;;32.20;99.90;;;;;;5208757;28;20034;-62
2022/08/02 11:40:17;;;;;;;0.70;0.70;;;33.40;99.90;;;;;;5215475;28;20046;-62
2022/08/02 11:42:49;;;;;;;0.80;0.75;;;34.60;99.90;;;;;;5201180;28;20237;-62
2022/08/02 11:45:26;;;;;;;0.70;0.70;;;34.20;99.90;;;;;;5218806;28;20020;-63
2022/08/02 11:48:00;;;;;;;0.75;0.75;;;34.50;99.90;;;;;;5190780;28;20205;-63
2022/08/02 11:50:33;;;;;;;0.80;0.80;;;34.60;99.90;;;;;;5208542;28;20032;-62
2022/08/02 11:53:20;;;;;;;1.35;0.80;;;33.10;99.90;;;;;;5219994;28;20024;-64
2022/08/02 11:55:56;;;;;;;2.83;1.05;;;33.00;99.90;;;;;;5204753;28;20028;-62
2022/08/02 11:58:27;;;;;;;0.70;0.70;;;34.50;99.90;;;;;;5219197;28;20293;-62
2022/08/02 12:00:58;;;;;;;0.80;0.80;;;36.50;99.90;;;;;;5225821;28;20027;-62
2022/08/02 12:03:37;;;;;;;0.77;0.77;;;38.60;99.90;;;;;;5206735;28;20016;-62
2022/08/02 12:06:09;;;;;;;0.70;0.70;;;38.90;99.90;;;;;;5193542;28;20042;-62
2022/08/02 12:08:42;;;;;;;1.20;0.77;;;38.90;99.90;;;;;;5224549;28;20043;-63
2022/08/02 12:11:17;;;;;;;;;;;38.90;99.90;;;;;;5221929;28;20027;-63
2022/08/02 12:13:48;;;;;;;0.70;0.70;;;38.20;99.90;;;;;;5200134;28;19908;-61
2022/08/02 12:19:19;;;;;;;0.80;0.80;;;37.20;99.90;;;;;;5223850;28;20026;-63
2022/08/02 12:22:18;;;;;;;1.08;0.80;;;36.20;99.90;;;;;;5202780;28;20029;-63
2022/08/02 12:24:51;;;;;;;0.80;0.80;;;35.90;99.90;;;;;;5220017;28;20142;-63
2022/08/02 12:27:39;;;;;;;1.52;0.93;;;34.90;99.90;;;;;;5224707;28;20016;-62
2022/08/02 12:30:16;;;;;;;1.00;0.90;;;33.60;99.90;;;;;;5165380;28;20306;-62
2022/08/02 12:32:50;;;;;;;0.80;0.80;;;31.20;99.90;;;;;;5201048;28;20197;-62
2022/08/02 12:35:21;;;;;;;;;;;30.80;99.90;;;;;;5194354;28;20060;-62
2022/08/02 12:37:53;;;;;;;0.85;0.73;;;31.60;99.90;;;;;;5215524;28;20093;-63
2022/08/02 12:40:27;;;;;;;0.90;0.90;;;32.50;99.90;;;;;;5179820;28;20222;-63
2022/08/02 12:43:04;;;;;;;1.20;0.90;;;33.40;99.90;;;;;;5196233;28;20025;-63
2022/08/02 12:45:53;;;;;;;0.90;0.70;;;33.10;99.90;;;;;;5200427;28;20277;-62
2022/08/02 12:48:39;;;;;;;2.55;0.88;;;34.20;99.90;;;;;;5216014;28;20025;-61
2022/08/02 12:51:23;;;;;;;4.95;2.13;;;33.10;99.90;;;;;;5213612;28;20043;-61
2022/08/02 12:54:12;;;;;;;1.38;0.80;;;32.10;99.90;;;;;;5211933;28;20240;-62
2022/08/02 12:56:46;;;;;;;0.80;0.80;;;30.80;99.90;;;;;;5202946;28;20302;-62
2022/08/02 12:59:31;;;;;;;;;;;31.00;99.90;;;;;;5216506;28;20035;-62
2022/08/02 13:02:05;;;;;;;1.35;0.85;;;31.80;99.90;;;;;;5210991;28;20178;-63
2022/08/02 13:04:37;;;;;;;2.30;0.98;;;31.50;99.90;;;;;;5181181;28;20056;-64
2022/08/02 13:07:10;;;;;;;0.68;0.68;;;30.20;99.90;;;;;;5215604;28;20033;-62
2022/08/02 13:09:46;;;;;;;0.98;0.85;;;31.70;99.90;;;;;;5210147;28;20025;-63
2022/08/02 13:12:18;;;;;;;2.85;0.82;;;33.20;99.90;;;;;;5197562;28;20033;-62
2022/08/02 13:14:50;;;;;;;0.95;0.90;;;34.30;99.90;;;;;;5215712;28;20043;-64
2022/08/02 13:17:21;;;;;;;0.98;0.80;;;35.80;99.90;;;;;;5214882;28;20039;-62
2022/08/02 13:19:52;;;;;;;1.50;0.80;;;37.60;99.90;;;;;;5214481;28;20086;-62
2022/08/02 13:22:26;;;;;;;0.95;0.88;;;38.20;99.90;;;;;;5214971;28;20024;-63
2022/08/02 13:25:03;;;;;;;;;;;37.70;99.90;;;;;;5209576;28;20028;-62
2022/08/02 13:27:35;;;;;;;0.90;0.90;;;37.80;99.90;;;;;;5211021;28;19926;-62
2022/08/02 13:30:07;;;;;;;1.15;1.05;;;37.30;99.90;;;;;;5214040;28;20345;-62
2022/08/02 13:32:40;;;;;;;1.08;1.00;;;37.00;99.90;;;;;;5196611;28;20021;-63
2022/08/02 13:35:11;;;;;;;0.70;0.70;;;36.60;99.90;;;;;;5218062;28;20043;-64